createdAt,value
2023-08-02T00:00:00.295Z,0
2023-08-02T00:01:16.899Z,0
2023-08-02T00:02:33.352Z,0
2023-08-02T00:03:49.861Z,0
2023-08-02T00:05:06.397Z,0
2023-08-02T00:06:22.908Z,0
2023-08-02T00:07:39.446Z,0
2023-08-02T00:08:55.970Z,0
2023-08-02T00:10:12.478Z,0
2023-08-02T00:11:29.015Z,0
2023-08-02T00:12:44.878Z,0
2023-08-02T00:14:01.333Z,0
2023-08-02T00:15:17.838Z,0
2023-08-02T00:16:34.373Z,0
2023-08-02T00:17:50.896Z,0
2023-08-02T00:19:07.494Z,0
2023-08-02T00:20:23.945Z,0
2023-08-02T00:21:40.471Z,0
2023-08-02T00:22:56.994Z,0
2023-08-02T00:24:13.586Z,0
2023-08-02T00:25:30.040Z,0
2023-08-02T00:26:46.564Z,0
2023-08-02T00:28:03.079Z,0
2023-08-02T00:29:19.679Z,0
2023-08-02T00:30:35.388Z,0
2023-08-02T00:31:51.919Z,0
2023-08-02T00:33:08.518Z,0
2023-08-02T00:34:24.956Z,0
2023-08-02T00:35:40.788Z,0
2023-08-02T00:38:13.849Z,0
2023-08-02T00:39:30.357Z,0
2023-08-02T00:40:46.967Z,0
2023-08-02T00:42:03.490Z,0
2023-08-02T00:43:19.934Z,0
2023-08-02T00:44:36.459Z,0
2023-08-02T00:45:53.060Z,0
2023-08-02T00:47:09.515Z,0
2023-08-02T00:48:26.031Z,0
2023-08-02T00:49:42.551Z,0
2023-08-02T00:50:59.068Z,0
2023-08-02T00:52:15.589Z,0
2023-08-02T00:53:31.393Z,0
2023-08-02T00:54:47.914Z,0
2023-08-02T00:56:04.429Z,0
2023-08-02T00:57:20.952Z,0
2023-08-02T00:58:37.474Z,0
2023-08-02T00:59:54.000Z,0
2023-08-02T01:01:10.520Z,0
2023-08-02T01:02:27.129Z,0
2023-08-02T01:03:43.652Z,0
2023-08-02T01:05:00.091Z,0
2023-08-02T01:06:16.618Z,0
2023-08-02T01:07:33.147Z,0
2023-08-02T01:08:49.665Z,0
2023-08-02T01:10:05.539Z,0
2023-08-02T01:11:21.987Z,0
2023-08-02T01:12:38.585Z,0
2023-08-02T01:13:55.029Z,0
2023-08-02T01:15:11.558Z,0
2023-08-02T01:16:28.076Z,0
2023-08-02T01:17:44.601Z,0
2023-08-02T01:19:01.124Z,0
2023-08-02T01:20:17.649Z,0
2023-08-02T01:22:50.699Z,0
2023-08-02T01:27:56.864Z,0
2023-08-02T01:29:12.726Z,0
2023-08-02T01:30:28.530Z,0
2023-08-02T01:31:45.025Z,0
2023-08-02T01:33:01.564Z,0
2023-08-02T01:34:18.082Z,0
2023-08-02T01:35:34.621Z,0
2023-08-02T01:36:51.145Z,0
2023-08-02T01:38:07.640Z,0
2023-08-02T01:39:24.173Z,0
2023-08-02T01:40:40.684Z,0
2023-08-02T01:41:56.570Z,0
2023-08-02T01:43:12.380Z,0
2023-08-02T01:44:28.880Z,0
2023-08-02T01:45:45.401Z,0
2023-08-02T01:47:01.930Z,0
2023-08-02T01:48:18.473Z,0
2023-08-02T01:49:34.973Z,0
2023-08-02T01:50:51.489Z,0
2023-08-02T01:52:08.043Z,0
2023-08-02T01:53:24.543Z,0
2023-08-02T01:54:41.089Z,0
2023-08-02T01:55:57.589Z,0
2023-08-02T01:57:14.124Z,0
2023-08-02T01:58:30.635Z,0
2023-08-02T01:59:46.421Z,0
2023-08-02T02:01:02.945Z,0
2023-08-02T02:02:19.482Z,0
2023-08-02T02:03:35.989Z,0
2023-08-02T02:04:52.522Z,0
2023-08-02T02:07:25.590Z,0
2023-08-02T02:08:42.088Z,0
2023-08-02T02:09:58.636Z,0
2023-08-02T02:11:15.131Z,0
2023-08-02T02:12:31.665Z,0
2023-08-02T02:13:48.193Z,0
2023-08-02T02:15:04.706Z,0
2023-08-02T02:16:20.495Z,0
2023-08-02T02:17:37.019Z,0
2023-08-02T02:18:53.538Z,0
2023-08-02T02:20:10.063Z,0
2023-08-02T02:21:26.593Z,0
2023-08-02T02:22:43.114Z,0
2023-08-02T02:23:59.634Z,0
2023-08-02T02:25:16.184Z,0
2023-08-02T02:26:32.675Z,0
2023-08-02T02:29:05.735Z,0
2023-08-02T02:30:22.277Z,0
2023-08-02T02:31:38.778Z,0
2023-08-02T02:32:54.592Z,0
2023-08-02T02:34:11.092Z,0
2023-08-02T02:35:27.623Z,0
2023-08-02T02:36:44.145Z,0
2023-08-02T02:38:00.667Z,0
2023-08-02T02:39:17.208Z,0
2023-08-02T02:40:33.731Z,0
2023-08-02T02:41:50.230Z,0
2023-08-02T02:43:06.777Z,0
2023-08-02T02:44:23.301Z,0
2023-08-02T02:45:39.824Z,0
2023-08-02T02:46:56.321Z,0
2023-08-02T02:48:12.843Z,0
2023-08-02T02:49:28.644Z,0
2023-08-02T02:52:01.676Z,0
2023-08-02T02:53:18.202Z,0
2023-08-02T02:54:34.735Z,0
2023-08-02T02:55:51.250Z,0
2023-08-02T02:57:07.772Z,0
2023-08-02T02:58:24.296Z,0
2023-08-02T02:59:40.814Z,0
2023-08-02T03:00:57.349Z,0
2023-08-02T03:02:13.877Z,0
2023-08-02T03:03:30.393Z,0
2023-08-02T03:04:46.908Z,0
2023-08-02T03:06:02.706Z,0
2023-08-02T03:07:19.226Z,0
2023-08-02T03:08:35.757Z,0
2023-08-02T03:09:52.284Z,0
2023-08-02T03:11:08.796Z,0
2023-08-02T03:12:25.321Z,0
2023-08-02T03:13:41.836Z,0
2023-08-02T03:14:58.362Z,0
2023-08-02T03:16:14.883Z,0
2023-08-02T03:17:31.441Z,0
2023-08-02T03:18:47.943Z,0
2023-08-02T03:20:04.459Z,0
2023-08-02T03:21:20.989Z,0
2023-08-02T03:22:36.783Z,0
2023-08-02T03:23:53.326Z,0
2023-08-02T03:25:09.834Z,0
2023-08-02T03:26:26.357Z,0
2023-08-02T03:27:42.868Z,0
2023-08-02T03:28:59.419Z,0
2023-08-02T03:30:15.942Z,0
2023-08-02T03:31:32.446Z,0
2023-08-02T03:32:48.957Z,0
2023-08-02T03:34:05.482Z,0
2023-08-02T03:35:22.003Z,0
2023-08-02T03:36:38.558Z,0
2023-08-02T03:37:55.064Z,0
2023-08-02T03:39:10.854Z,0
2023-08-02T03:40:27.368Z,0
2023-08-02T03:41:43.889Z,0
2023-08-02T03:43:00.407Z,0
2023-08-02T03:44:16.967Z,0
2023-08-02T03:45:33.490Z,0
2023-08-02T03:46:49.978Z,0
2023-08-02T03:48:06.507Z,0
2023-08-02T03:49:23.040Z,0
2023-08-02T03:50:39.582Z,0
2023-08-02T03:51:56.077Z,0
2023-08-02T03:53:12.593Z,0
2023-08-02T03:54:29.128Z,4
2023-08-02T03:55:44.944Z,4
2023-08-02T03:57:01.445Z,4
2023-08-02T03:58:17.969Z,4
2023-08-02T03:59:34.496Z,4
2023-08-02T04:00:51.009Z,0
2023-08-02T04:02:07.560Z,0
2023-08-02T04:03:24.058Z,0
2023-08-02T04:04:40.572Z,0
2023-08-02T04:05:57.097Z,0
2023-08-02T04:07:13.635Z,0
2023-08-02T04:08:30.147Z,0
2023-08-02T04:09:46.682Z,0
2023-08-02T04:11:03.204Z,0
2023-08-02T04:12:18.998Z,0
2023-08-02T04:13:35.538Z,0
2023-08-02T04:14:52.025Z,0
2023-08-02T04:16:08.548Z,0
2023-08-02T04:17:25.077Z,0
2023-08-02T04:18:41.596Z,0
2023-08-02T04:21:14.659Z,0
2023-08-02T04:22:31.200Z,0
2023-08-02T04:23:47.699Z,0
2023-08-02T04:25:04.220Z,0
2023-08-02T04:26:20.749Z,0
2023-08-02T04:27:37.258Z,4
2023-08-02T04:28:53.083Z,4
2023-08-02T04:30:09.582Z,4
2023-08-02T04:31:26.129Z,4
2023-08-02T04:32:42.620Z,4
2023-08-02T04:33:59.142Z,4
2023-08-02T04:35:15.661Z,4
2023-08-02T04:36:32.194Z,4
2023-08-02T04:37:48.709Z,4
2023-08-02T04:39:05.239Z,4
2023-08-02T04:40:21.759Z,4
2023-08-02T04:41:38.286Z,4
2023-08-02T04:42:54.798Z,0
2023-08-02T04:44:11.326Z,0
2023-08-02T04:45:27.114Z,4
2023-08-02T04:46:43.675Z,4
2023-08-02T04:48:00.175Z,4
2023-08-02T04:49:16.682Z,4
2023-08-02T04:50:33.244Z,4
2023-08-02T04:51:49.040Z,4
2023-08-02T04:53:05.599Z,4
2023-08-02T04:54:22.091Z,8
2023-08-02T04:55:38.621Z,4
2023-08-02T04:56:55.136Z,4
2023-08-02T04:58:11.661Z,4
2023-08-02T04:59:28.215Z,4
2023-08-02T05:00:44.716Z,4
2023-08-02T05:02:01.232Z,4
2023-08-02T05:03:17.747Z,4
2023-08-02T05:05:50.799Z,4
2023-08-02T05:07:07.328Z,4
2023-08-02T05:08:23.108Z,4
2023-08-02T05:09:39.634Z,4
2023-08-02T05:10:56.150Z,4
2023-08-02T05:12:12.685Z,4
2023-08-02T05:14:45.726Z,8
2023-08-02T05:16:02.239Z,8
2023-08-02T05:17:18.779Z,8
2023-08-02T05:18:35.293Z,8
2023-08-02T05:19:51.825Z,8
2023-08-02T05:21:08.371Z,8
2023-08-02T05:22:24.894Z,4
2023-08-02T05:23:41.386Z,4
2023-08-02T05:24:57.209Z,4
2023-08-02T05:26:13.709Z,4
2023-08-02T05:27:30.233Z,8
2023-08-02T05:28:46.738Z,8
2023-08-02T05:30:03.267Z,4
2023-08-02T05:31:19.822Z,8
2023-08-02T05:32:36.303Z,8
2023-08-02T05:33:52.845Z,8
2023-08-02T05:35:09.358Z,8
2023-08-02T05:36:25.914Z,12
2023-08-02T05:37:42.415Z,8
2023-08-02T05:38:58.939Z,8
2023-08-02T05:40:15.451Z,8
2023-08-02T05:41:31.244Z,12
2023-08-02T05:42:47.772Z,8
2023-08-02T05:44:04.323Z,12
2023-08-02T05:45:20.812Z,12
2023-08-02T05:46:37.369Z,12
2023-08-02T05:47:53.862Z,12
2023-08-02T05:50:26.910Z,12
2023-08-02T05:51:43.422Z,12
2023-08-02T05:52:59.960Z,12
2023-08-02T05:54:16.473Z,12
2023-08-02T05:55:33.000Z,12
2023-08-02T05:56:49.514Z,12
2023-08-02T05:58:05.304Z,12
2023-08-02T05:59:21.831Z,16
2023-08-02T06:00:38.391Z,12
2023-08-02T06:01:54.886Z,16
2023-08-02T06:03:11.397Z,12
2023-08-02T06:04:27.918Z,16
2023-08-02T06:05:44.452Z,16
2023-08-02T06:07:01.007Z,16
2023-08-02T06:08:17.507Z,16
2023-08-02T06:09:34.020Z,16
2023-08-02T06:10:50.539Z,16
2023-08-02T06:12:07.059Z,20
2023-08-02T06:13:23.595Z,16
2023-08-02T06:14:39.378Z,20
2023-08-02T06:15:55.908Z,16
2023-08-02T06:18:28.956Z,20
2023-08-02T06:19:45.471Z,20
2023-08-02T06:21:02.000Z,20
2023-08-02T06:22:18.516Z,32
2023-08-02T06:23:35.049Z,24
2023-08-02T06:24:51.570Z,24
2023-08-02T06:26:08.079Z,24
2023-08-02T06:27:24.603Z,36
2023-08-02T06:28:41.137Z,32
2023-08-02T06:29:57.647Z,36
2023-08-02T06:31:13.439Z,32
2023-08-02T06:32:29.963Z,24
2023-08-02T06:35:03.016Z,32
2023-08-02T06:36:19.574Z,20
2023-08-02T06:37:36.054Z,20
2023-08-02T06:38:52.595Z,20
2023-08-02T06:40:09.102Z,24
2023-08-02T06:41:25.628Z,36
2023-08-02T06:42:42.158Z,20
2023-08-02T06:43:58.670Z,40
2023-08-02T06:45:15.204Z,40
2023-08-02T06:46:31.721Z,44
2023-08-02T06:47:47.516Z,44
2023-08-02T06:49:04.044Z,44
2023-08-02T06:50:20.554Z,44
2023-08-02T06:51:37.090Z,44
2023-08-02T06:52:53.605Z,44
2023-08-02T06:54:10.128Z,44
2023-08-02T06:55:26.649Z,36
2023-08-02T06:56:43.177Z,40
2023-08-02T06:57:59.704Z,40
2023-08-02T06:59:16.220Z,44
2023-08-02T07:00:32.747Z,44
2023-08-02T07:01:49.262Z,44
2023-08-02T07:03:05.831Z,44
2023-08-02T07:04:21.595Z,48
2023-08-02T07:05:38.146Z,32
2023-08-02T07:06:54.642Z,48
2023-08-02T07:08:11.155Z,48
2023-08-02T07:09:27.676Z,48
2023-08-02T07:10:44.199Z,44
2023-08-02T07:12:00.734Z,44
2023-08-02T07:13:17.243Z,44
2023-08-02T07:14:33.776Z,48
2023-08-02T07:15:50.288Z,44
2023-08-02T07:17:06.814Z,48
2023-08-02T07:18:23.333Z,44
2023-08-02T07:19:39.872Z,48
2023-08-02T07:20:55.653Z,48
2023-08-02T07:22:12.175Z,52
2023-08-02T07:23:28.697Z,48
2023-08-02T07:24:45.232Z,52
2023-08-02T07:26:01.755Z,48
2023-08-02T07:27:18.309Z,52
2023-08-02T07:28:34.797Z,52
2023-08-02T07:29:51.318Z,52
2023-08-02T07:31:07.833Z,52
2023-08-02T07:32:24.401Z,52
2023-08-02T07:34:57.410Z,56
2023-08-02T07:36:13.926Z,52
2023-08-02T07:37:29.724Z,52
2023-08-02T07:38:46.255Z,52
2023-08-02T07:40:02.767Z,60
2023-08-02T07:41:19.288Z,56
2023-08-02T07:42:35.817Z,56
2023-08-02T07:43:52.343Z,60
2023-08-02T07:45:08.857Z,56
2023-08-02T07:46:25.397Z,60
2023-08-02T07:47:41.905Z,24
2023-08-02T07:48:58.428Z,60
2023-08-02T07:50:14.968Z,64
2023-08-02T07:51:31.486Z,60
2023-08-02T07:52:48.002Z,56
2023-08-02T07:54:03.786Z,64
2023-08-02T07:56:36.849Z,64
2023-08-02T07:57:53.367Z,64
2023-08-02T07:59:09.891Z,64
2023-08-02T08:00:26.414Z,68
2023-08-02T08:01:42.926Z,44
2023-08-02T08:02:59.455Z,60
2023-08-02T08:04:15.976Z,72
2023-08-02T08:05:32.492Z,68
2023-08-02T08:06:49.025Z,68
2023-08-02T08:08:05.551Z,72
2023-08-02T08:09:22.070Z,72
2023-08-02T08:10:37.857Z,68
2023-08-02T08:13:10.899Z,24
2023-08-02T08:14:27.425Z,72
2023-08-02T08:15:43.958Z,64
2023-08-02T08:17:00.469Z,80
2023-08-02T08:18:16.998Z,76
2023-08-02T08:19:33.534Z,24
2023-08-02T08:20:50.049Z,76
2023-08-02T08:22:06.564Z,72
2023-08-02T08:23:23.100Z,72
2023-08-02T08:24:39.623Z,72
2023-08-02T08:25:56.146Z,72
2023-08-02T08:27:11.937Z,76
2023-08-02T08:28:28.458Z,72
2023-08-02T08:29:44.967Z,72
2023-08-02T08:31:01.495Z,72
2023-08-02T08:32:18.018Z,72
2023-08-02T08:33:34.555Z,72
2023-08-02T08:34:51.078Z,76
2023-08-02T08:36:07.590Z,72
2023-08-02T08:37:24.117Z,76
2023-08-02T08:38:40.641Z,80
2023-08-02T08:39:57.152Z,76
2023-08-02T08:41:13.688Z,80
2023-08-02T08:42:30.216Z,84
2023-08-02T08:43:46.007Z,84
2023-08-02T08:45:02.530Z,84
2023-08-02T08:46:19.039Z,84
2023-08-02T08:47:35.565Z,84
2023-08-02T08:48:52.087Z,80
2023-08-02T08:50:08.615Z,80
2023-08-02T08:51:25.146Z,80
2023-08-02T08:52:41.660Z,84
2023-08-02T08:53:58.190Z,84
2023-08-02T08:55:14.707Z,88
2023-08-02T08:56:31.227Z,92
2023-08-02T08:57:47.767Z,88
2023-08-02T08:59:04.271Z,88
2023-08-02T09:00:20.074Z,88
2023-08-02T09:01:36.599Z,84
2023-08-02T09:02:53.158Z,88
2023-08-02T09:04:09.682Z,88
2023-08-02T09:05:26.205Z,88
2023-08-02T09:06:42.685Z,92
2023-08-02T09:07:58.517Z,76
2023-08-02T09:09:15.038Z,48
2023-08-02T09:10:31.566Z,20
2023-08-02T09:11:48.099Z,20
2023-08-02T09:13:04.610Z,44
2023-08-02T09:14:21.178Z,88
2023-08-02T09:15:37.662Z,76
2023-08-02T09:16:54.193Z,88
2023-08-02T09:18:10.713Z,92
2023-08-02T09:19:27.240Z,96
2023-08-02T09:20:43.758Z,96
2023-08-02T09:22:00.280Z,92
2023-08-02T09:23:16.798Z,96
2023-08-02T09:24:32.584Z,104
2023-08-02T09:25:49.109Z,104
2023-08-02T09:27:05.644Z,96
2023-08-02T09:28:22.167Z,80
2023-08-02T09:29:38.692Z,60
2023-08-02T09:30:55.196Z,44
2023-08-02T09:32:11.733Z,44
2023-08-02T09:33:28.293Z,72
2023-08-02T09:34:44.767Z,64
2023-08-02T09:36:01.295Z,80
2023-08-02T09:37:17.814Z,56
2023-08-02T09:38:34.341Z,48
2023-08-02T09:39:50.872Z,68
2023-08-02T09:41:06.656Z,72
2023-08-02T09:42:23.192Z,84
2023-08-02T09:43:39.709Z,92
2023-08-02T09:44:56.239Z,72
2023-08-02T09:46:12.747Z,56
2023-08-02T09:47:29.269Z,32
2023-08-02T09:48:45.794Z,108
2023-08-02T09:50:02.327Z,44
2023-08-02T09:51:18.847Z,36
2023-08-02T09:52:35.363Z,104
2023-08-02T09:53:51.897Z,104
2023-08-02T09:55:08.416Z,80
2023-08-02T09:56:24.932Z,28
2023-08-02T09:57:40.731Z,40
2023-08-02T09:58:57.296Z,84
2023-08-02T10:00:13.770Z,32
2023-08-02T10:01:30.293Z,36
2023-08-02T10:02:46.826Z,40
2023-08-02T10:04:03.340Z,64
2023-08-02T10:05:19.872Z,76
2023-08-02T10:06:36.388Z,92
2023-08-02T10:07:52.911Z,52
2023-08-02T10:09:09.429Z,72
2023-08-02T10:10:25.952Z,76
2023-08-02T10:11:42.476Z,72
2023-08-02T10:12:59.004Z,44
2023-08-02T10:14:14.795Z,36
2023-08-02T10:15:31.330Z,40
2023-08-02T10:16:47.839Z,32
2023-08-02T10:18:04.377Z,32
2023-08-02T10:19:20.897Z,44
2023-08-02T10:20:37.416Z,32
2023-08-02T10:21:53.945Z,40
2023-08-02T10:23:10.464Z,44
2023-08-02T10:24:26.993Z,36
2023-08-02T10:25:43.551Z,104
2023-08-02T10:27:00.024Z,108
2023-08-02T10:28:16.564Z,80
2023-08-02T10:29:33.121Z,56
2023-08-02T10:30:48.863Z,56
2023-08-02T10:32:05.400Z,44
2023-08-02T10:33:21.916Z,40
2023-08-02T10:34:38.482Z,44
2023-08-02T10:35:54.955Z,52
2023-08-02T10:37:11.484Z,44
2023-08-02T10:38:28.002Z,104
2023-08-02T10:39:44.537Z,108
2023-08-02T10:41:01.062Z,36
2023-08-02T10:42:17.569Z,32
2023-08-02T10:43:34.091Z,36
2023-08-02T10:44:50.621Z,44
2023-08-02T10:46:07.154Z,36
2023-08-02T10:47:22.940Z,40
2023-08-02T10:48:39.505Z,36
2023-08-02T10:49:55.977Z,76
2023-08-02T10:51:12.513Z,64
2023-08-02T10:52:29.036Z,44
2023-08-02T10:53:45.548Z,76
2023-08-02T10:55:02.081Z,52
2023-08-02T10:56:18.599Z,56
2023-08-02T10:57:35.111Z,64
2023-08-02T10:58:51.647Z,64
2023-08-02T11:00:08.179Z,68
2023-08-02T11:01:24.695Z,60
2023-08-02T11:02:41.208Z,80
2023-08-02T11:03:57.001Z,56
2023-08-02T11:05:13.530Z,28
2023-08-02T11:06:30.049Z,24
2023-08-02T11:07:46.566Z,20
2023-08-02T11:09:03.109Z,20
2023-08-02T11:10:19.613Z,16
2023-08-02T11:11:36.139Z,16
2023-08-02T11:12:52.667Z,16
2023-08-02T11:14:09.236Z,20
2023-08-02T11:15:25.705Z,20
2023-08-02T11:16:42.235Z,20
2023-08-02T11:17:58.767Z,24
2023-08-02T11:19:15.286Z,24
2023-08-02T11:20:31.066Z,20
2023-08-02T11:21:47.599Z,20
2023-08-02T11:23:04.129Z,24
2023-08-02T11:24:20.654Z,24
2023-08-02T11:25:37.172Z,24
2023-08-02T11:26:53.696Z,20
2023-08-02T11:28:10.259Z,20
2023-08-02T11:29:26.782Z,20
2023-08-02T11:30:43.250Z,24
2023-08-02T11:31:59.774Z,24
2023-08-02T11:33:16.299Z,24
2023-08-02T11:34:32.828Z,24
2023-08-02T11:35:49.353Z,20
2023-08-02T11:37:05.147Z,20
2023-08-02T11:38:21.667Z,20
2023-08-02T11:39:38.235Z,20
2023-08-02T11:40:54.719Z,20
2023-08-02T11:42:11.241Z,20
2023-08-02T11:43:27.752Z,24
2023-08-02T11:44:44.284Z,20
2023-08-02T11:46:00.796Z,20
2023-08-02T11:47:17.333Z,20
2023-08-02T11:48:33.844Z,24
2023-08-02T11:49:50.371Z,24
2023-08-02T11:51:06.888Z,24
2023-08-02T11:52:23.426Z,36
2023-08-02T11:53:39.206Z,36
2023-08-02T11:54:55.733Z,36
2023-08-02T11:56:12.268Z,32
2023-08-02T11:57:28.783Z,28
2023-08-02T11:58:45.298Z,24
2023-08-02T12:00:01.834Z,24
2023-08-02T12:01:18.340Z,24
2023-08-02T12:02:34.871Z,24
2023-08-02T12:03:51.395Z,24
2023-08-02T12:05:07.920Z,24
2023-08-02T12:06:24.449Z,24
2023-08-02T12:07:40.964Z,28
2023-08-02T12:08:57.491Z,28
2023-08-02T12:10:13.286Z,32
2023-08-02T12:11:29.810Z,28
2023-08-02T12:12:46.375Z,28
2023-08-02T12:14:02.858Z,28
2023-08-02T12:15:19.367Z,32
2023-08-02T12:16:35.905Z,36
2023-08-02T12:17:52.466Z,36
2023-08-02T12:19:08.937Z,44
2023-08-02T12:20:25.462Z,44
2023-08-02T12:21:41.986Z,44
2023-08-02T12:22:58.507Z,44
2023-08-02T12:24:15.026Z,40
2023-08-02T12:25:31.562Z,48
2023-08-02T12:26:47.340Z,40
2023-08-02T12:28:03.880Z,44
2023-08-02T12:29:20.395Z,36
2023-08-02T12:30:36.924Z,32
2023-08-02T12:31:53.445Z,32
2023-08-02T12:33:09.961Z,28
2023-08-02T12:34:26.482Z,24
2023-08-02T12:35:43.016Z,20
2023-08-02T12:36:59.527Z,20
2023-08-02T12:38:16.062Z,16
2023-08-02T12:39:32.587Z,16
2023-08-02T12:40:49.096Z,16
2023-08-02T12:42:05.628Z,16
2023-08-02T12:43:21.424Z,20
2023-08-02T12:44:37.940Z,16
2023-08-02T12:45:54.472Z,16
2023-08-02T12:47:11.035Z,20
2023-08-02T12:48:27.499Z,20
2023-08-02T12:49:44.025Z,24
2023-08-02T12:51:00.550Z,24
2023-08-02T12:52:17.128Z,20
2023-08-02T12:53:33.592Z,24
2023-08-02T12:54:50.128Z,24
2023-08-02T12:56:06.645Z,24
2023-08-02T12:57:23.160Z,24
2023-08-02T12:58:39.744Z,28
2023-08-02T12:59:55.496Z,24
2023-08-02T13:01:12.008Z,24
2023-08-02T13:02:28.527Z,20
2023-08-02T13:03:45.051Z,24
2023-08-02T13:05:01.581Z,20
2023-08-02T13:06:18.092Z,16
2023-08-02T13:07:34.674Z,20
2023-08-02T13:08:51.154Z,16
2023-08-02T13:10:07.668Z,16
2023-08-02T13:11:24.193Z,16
2023-08-02T13:12:40.720Z,16
2023-08-02T13:13:57.236Z,16
2023-08-02T13:15:13.766Z,16
2023-08-02T13:16:29.557Z,16
2023-08-02T13:17:46.073Z,12
2023-08-02T13:19:02.605Z,12
2023-08-02T13:20:19.117Z,12
2023-08-02T13:21:35.650Z,8
2023-08-02T13:22:52.175Z,8
2023-08-02T13:24:08.005Z,8
2023-08-02T13:25:24.523Z,8
2023-08-02T13:26:41.054Z,4
2023-08-02T13:27:57.571Z,4
2023-08-02T13:29:14.092Z,4
2023-08-02T13:30:30.621Z,4
2023-08-02T13:31:47.191Z,4
2023-08-02T13:33:03.658Z,4
2023-08-02T13:34:20.191Z,4
2023-08-02T13:35:36.702Z,4
2023-08-02T13:36:53.228Z,8
2023-08-02T13:38:09.750Z,8
2023-08-02T13:39:26.286Z,8
2023-08-02T13:40:42.074Z,8
2023-08-02T13:41:58.645Z,12
2023-08-02T13:43:15.114Z,12
2023-08-02T13:44:31.644Z,16
2023-08-02T13:45:48.159Z,16
2023-08-02T13:47:04.678Z,12
2023-08-02T13:48:21.214Z,12
2023-08-02T13:49:37.735Z,8
2023-08-02T13:50:54.247Z,8
2023-08-02T13:52:10.777Z,8
2023-08-02T13:53:27.309Z,12
2023-08-02T13:54:43.830Z,16
2023-08-02T13:56:00.340Z,16
2023-08-02T13:57:16.140Z,16
2023-08-02T13:58:32.664Z,16
2023-08-02T13:59:49.192Z,16
2023-08-02T14:01:05.698Z,16
2023-08-02T14:02:22.283Z,16
2023-08-02T14:03:38.747Z,16
2023-08-02T14:04:55.286Z,20
2023-08-02T14:06:11.793Z,20
2023-08-02T14:07:28.319Z,20
2023-08-02T14:08:44.845Z,24
2023-08-02T14:10:01.363Z,24
2023-08-02T14:11:17.893Z,28
2023-08-02T14:12:34.416Z,28
2023-08-02T14:13:50.215Z,28
2023-08-02T14:15:06.725Z,28
2023-08-02T14:16:23.258Z,24
2023-08-02T14:17:39.772Z,20
2023-08-02T14:18:56.302Z,20
2023-08-02T14:20:12.813Z,16
2023-08-02T14:21:29.339Z,20
2023-08-02T14:22:45.921Z,20
2023-08-02T14:24:02.385Z,20
2023-08-02T14:25:18.906Z,24
2023-08-02T14:26:35.435Z,24
2023-08-02T14:27:51.964Z,24
2023-08-02T14:29:08.537Z,20
2023-08-02T14:30:24.270Z,20
2023-08-02T14:31:40.802Z,16
2023-08-02T14:32:57.375Z,16
2023-08-02T14:34:13.833Z,16
2023-08-02T14:35:30.368Z,12
2023-08-02T14:36:46.893Z,12
2023-08-02T14:38:03.405Z,12
2023-08-02T14:39:19.926Z,8
2023-08-02T14:40:36.464Z,12
2023-08-02T14:41:52.980Z,8
2023-08-02T14:43:09.502Z,8
2023-08-02T14:44:26.033Z,8
2023-08-02T14:45:42.544Z,12
2023-08-02T14:46:58.351Z,8
2023-08-02T14:48:14.921Z,8
2023-08-02T14:49:31.383Z,12
2023-08-02T14:50:47.910Z,8
2023-08-02T14:52:04.445Z,8
2023-08-02T14:53:21.013Z,8
2023-08-02T14:54:37.490Z,8
2023-08-02T14:55:54.008Z,4
2023-08-02T14:57:10.528Z,4
2023-08-02T14:58:27.051Z,8
2023-08-02T14:59:43.576Z,4
2023-08-02T15:01:00.096Z,4
2023-08-02T15:02:16.618Z,4
2023-08-02T15:03:32.417Z,4
2023-08-02T15:04:48.929Z,8
2023-08-02T15:06:05.461Z,4
2023-08-02T15:07:21.984Z,12
2023-08-02T15:08:38.503Z,12
2023-08-02T15:09:55.037Z,8
2023-08-02T15:11:11.606Z,8
2023-08-02T15:12:28.075Z,8
2023-08-02T15:13:44.653Z,4
2023-08-02T15:15:01.131Z,8
2023-08-02T15:16:17.648Z,8
2023-08-02T15:17:34.168Z,8
2023-08-02T15:18:50.680Z,8
2023-08-02T15:20:06.478Z,8
2023-08-02T15:21:23.001Z,12
2023-08-02T15:22:39.584Z,12
2023-08-02T15:23:56.042Z,12
2023-08-02T15:25:12.578Z,16
2023-08-02T15:26:29.096Z,16
2023-08-02T15:27:45.000Z,16
2023-08-02T15:29:02.150Z,8
2023-08-02T15:30:18.670Z,12
2023-08-02T15:31:35.188Z,12
2023-08-02T15:32:51.704Z,8
2023-08-02T15:34:08.242Z,4
2023-08-02T15:35:24.756Z,4
2023-08-02T15:36:40.609Z,4
2023-08-02T15:37:57.074Z,4
2023-08-02T15:39:13.594Z,8
2023-08-02T15:40:30.120Z,8
2023-08-02T15:41:46.653Z,8
2023-08-02T15:43:03.175Z,8
2023-08-02T15:44:19.748Z,8
2023-08-02T15:45:36.205Z,8
2023-08-02T15:46:52.749Z,8
2023-08-02T15:48:09.256Z,8
2023-08-02T15:49:25.841Z,8
2023-08-02T15:50:42.304Z,12
2023-08-02T15:51:58.820Z,8
2023-08-02T15:53:14.679Z,8
2023-08-02T15:54:31.154Z,8
2023-08-02T15:55:47.726Z,12
2023-08-02T15:57:04.196Z,12
2023-08-02T15:58:20.710Z,12
2023-08-02T15:59:37.235Z,12
2023-08-02T16:00:53.769Z,12
2023-08-02T16:02:10.281Z,12
2023-08-02T16:03:26.803Z,16
2023-08-02T16:04:43.327Z,16
2023-08-02T16:05:59.844Z,16
2023-08-02T16:07:16.382Z,20
2023-08-02T16:08:32.905Z,20
2023-08-02T16:09:48.682Z,24
2023-08-02T16:11:05.204Z,24
2023-08-02T16:12:21.744Z,24
2023-08-02T16:13:38.260Z,24
2023-08-02T16:14:54.786Z,24
2023-08-02T16:16:11.301Z,28
2023-08-02T16:17:27.841Z,24
2023-08-02T16:18:44.353Z,24
2023-08-02T16:20:00.937Z,24
2023-08-02T16:21:17.410Z,20
2023-08-02T16:22:33.918Z,24
2023-08-02T16:23:50.444Z,16
2023-08-02T16:25:06.962Z,16
2023-08-02T16:26:22.754Z,16
2023-08-02T16:28:55.813Z,12
2023-08-02T16:30:12.334Z,12
2023-08-02T16:31:28.864Z,8
2023-08-02T16:32:45.379Z,8
2023-08-02T16:34:01.961Z,8
2023-08-02T16:35:18.430Z,8
2023-08-02T16:36:34.942Z,8
2023-08-02T16:37:51.469Z,4
2023-08-02T16:39:07.990Z,4
2023-08-02T16:40:24.576Z,8
2023-08-02T16:41:41.031Z,4
2023-08-02T16:42:56.838Z,8
2023-08-02T16:44:13.350Z,4
2023-08-02T16:45:29.937Z,4
2023-08-02T16:46:46.399Z,8
2023-08-02T16:48:02.983Z,8
2023-08-02T16:49:19.449Z,8
2023-08-02T16:50:35.980Z,4
2023-08-02T16:51:52.484Z,4
2023-08-02T16:53:09.021Z,4
2023-08-02T16:54:25.541Z,0
2023-08-02T16:55:42.057Z,4
2023-08-02T16:56:58.577Z,8
2023-08-02T16:58:15.106Z,4
2023-08-02T16:59:30.893Z,4
2023-08-02T17:00:47.427Z,4
2023-08-02T17:02:03.945Z,4
2023-08-02T17:03:20.529Z,4
2023-08-02T17:04:36.983Z,4
2023-08-02T17:05:53.526Z,4
2023-08-02T17:07:10.036Z,4
2023-08-02T17:08:26.569Z,4
2023-08-02T17:09:43.086Z,4
2023-08-02T17:10:59.598Z,0
2023-08-02T17:12:16.000Z,4
2023-08-02T17:13:32.653Z,4
2023-08-02T17:14:49.236Z,4
2023-08-02T17:16:04.972Z,4
2023-08-02T17:17:21.490Z,0
2023-08-02T17:18:38.012Z,4
2023-08-02T17:19:54.546Z,4
2023-08-02T17:21:11.063Z,4
2023-08-02T17:22:27.590Z,4
2023-08-02T17:23:44.106Z,4
2023-08-02T17:25:00.621Z,4
2023-08-02T17:26:17.162Z,0
2023-08-02T17:27:33.683Z,4
2023-08-02T17:28:50.198Z,4
2023-08-02T17:30:06.723Z,4
2023-08-02T17:31:23.245Z,0
2023-08-02T17:32:39.044Z,4
2023-08-02T17:33:55.564Z,4
2023-08-02T17:35:12.085Z,0
2023-08-02T17:36:28.604Z,0
2023-08-02T17:37:45.140Z,0
2023-08-02T17:39:01.658Z,0
2023-08-02T17:40:17.489Z,0
2023-08-02T17:41:34.019Z,0
2023-08-02T17:42:50.533Z,4
2023-08-02T17:44:07.059Z,0
2023-08-02T17:45:23.568Z,0
2023-08-02T17:46:40.108Z,0
2023-08-02T17:47:56.616Z,4
2023-08-02T17:49:13.155Z,4
2023-08-02T17:50:29.662Z,0
2023-08-02T17:51:46.191Z,0
2023-08-02T17:53:02.714Z,4
2023-08-02T17:54:19.302Z,0
2023-08-02T17:55:35.768Z,0
2023-08-02T17:56:51.546Z,4
2023-08-02T17:58:08.140Z,0
2023-08-02T17:59:24.600Z,4
2023-08-02T18:00:41.187Z,4
2023-08-02T18:01:57.639Z,4
2023-08-02T18:03:14.178Z,0
2023-08-02T18:04:30.693Z,0
2023-08-02T18:05:47.216Z,0
2023-08-02T18:07:03.742Z,0
2023-08-02T18:08:20.257Z,0
2023-08-02T18:09:36.778Z,0
2023-08-02T18:10:53.308Z,0
2023-08-02T18:12:09.894Z,0
2023-08-02T18:13:25.617Z,0
2023-08-02T18:14:42.146Z,0
2023-08-02T18:15:58.662Z,0
2023-08-02T18:17:15.189Z,0
2023-08-02T18:18:31.717Z,0
2023-08-02T18:19:48.235Z,0
2023-08-02T18:21:04.761Z,0
2023-08-02T18:22:21.283Z,0
2023-08-02T18:23:37.807Z,0
2023-08-02T18:24:54.329Z,0
2023-08-02T18:26:10.859Z,0
2023-08-02T18:27:27.372Z,0
2023-08-02T18:28:43.897Z,0
2023-08-02T18:29:59.757Z,0
2023-08-02T18:31:16.218Z,0
2023-08-02T18:32:32.730Z,0
2023-08-02T18:33:49.270Z,0
2023-08-02T18:35:05.779Z,0
2023-08-02T18:36:22.372Z,0
2023-08-02T18:37:38.835Z,0
2023-08-02T18:38:55.360Z,0
2023-08-02T18:40:11.867Z,0
2023-08-02T18:41:28.398Z,0
2023-08-02T18:42:44.918Z,0
2023-08-02T18:44:01.446Z,0
2023-08-02T18:45:18.034Z,0
2023-08-02T18:46:33.758Z,0
2023-08-02T18:47:50.276Z,0
2023-08-02T18:49:06.808Z,0
2023-08-02T18:50:23.330Z,0
2023-08-02T18:51:39.847Z,0